sensor_id;sensor_type;location;lat;lon;timestamp;P1;durP1;ratioP1;P2;durP2;ratioP2
74867;SDS011;63419;42.262;12.210;2022-11-21T00:02:27;2.35;;;0.40;;
74867;SDS011;63419;42.262;12.210;2022-11-21T00:05:06;2.45;;;0.60;;
74867;SDS011;63419;42.262;12.210;2022-11-21T00:07:36;2.55;;;0.50;;
74867;SDS011;63419;42.262;12.210;2022-11-21T00:10:06;3.28;;;0.50;;
74867;SDS011;63419;42.262;12.210;2022-11-21T00:12:38;4.72;;;0.60;;
74867;SDS011;63419;42.262;12.210;2022-11-21T00:15:09;1.80;;;0.30;;
74867;SDS011;63419;42.262;12.210;2022-11-21T00:17:45;4.68;;;0.90;;
74867;SDS011;63419;42.262;12.210;2022-11-21T00:20:14;3.60;;;1.20;;
74867;SDS011;63419;42.262;12.210;2022-11-21T00:22:47;3.45;;;0.80;;
74867;SDS011;63419;42.262;12.210;2022-11-21T00:25:19;3.25;;;0.95;;
74867;SDS011;63419;42.262;12.210;2022-11-21T00:27:48;3.38;;;0.82;;
74867;SDS011;63419;42.262;12.210;2022-11-21T00:30:18;2.67;;;0.47;;
74867;SDS011;63419;42.262;12.210;2022-11-21T00:32:49;4.13;;;0.98;;
74867;SDS011;63419;42.262;12.210;2022-11-21T00:35:20;6.07;;;1.40;;
74867;SDS011;63419;42.262;12.210;2022-11-21T00:37:51;3.30;;;0.63;;
74867;SDS011;63419;42.262;12.210;2022-11-21T00:40:25;3.83;;;0.70;;
74867;SDS011;63419;42.262;12.210;2022-11-21T00:43:00;4.38;;;0.90;;
74867;SDS011;63419;42.262;12.210;2022-11-21T00:45:47;4.20;;;1.42;;
74867;SDS011;63419;42.262;12.210;2022-11-21T00:48:25;5.45;;;1.90;;
74867;SDS011;63419;42.262;12.210;2022-11-21T00:51:19;3.58;;;1.30;;
74867;SDS011;63419;42.262;12.210;2022-11-21T00:53:51;4.40;;;1.20;;
74867;SDS011;63419;42.262;12.210;2022-11-21T00:56:22;3.83;;;0.82;;
74867;SDS011;63419;42.262;12.210;2022-11-21T00:58:55;4.10;;;0.98;;
74867;SDS011;63419;42.262;12.210;2022-11-21T01:01:22;4.50;;;1.33;;
74867;SDS011;63419;42.262;12.210;2022-11-21T01:03:53;8.77;;;6.40;;
74867;SDS011;63419;42.262;12.210;2022-11-21T01:06:23;5.68;;;1.48;;
74867;SDS011;63419;42.262;12.210;2022-11-21T01:08:57;5.03;;;1.35;;
74867;SDS011;63419;42.262;12.210;2022-11-21T01:11:36;4.07;;;1.08;;
74867;SDS011;63419;42.262;12.210;2022-11-21T01:14:05;10.55;;;3.35;;
74867;SDS011;63419;42.262;12.210;2022-11-21T01:16:47;6.30;;;2.20;;
74867;SDS011;63419;42.262;12.210;2022-11-21T01:19:16;4.95;;;1.20;;
74867;SDS011;63419;42.262;12.210;2022-11-21T01:21:46;3.95;;;0.95;;
74867;SDS011;63419;42.262;12.210;2022-11-21T01:24:19;3.80;;;0.98;;
74867;SDS011;63419;42.262;12.210;2022-11-21T01:26:48;4.78;;;1.30;;
74867;SDS011;63419;42.262;12.210;2022-11-21T01:29:26;3.70;;;0.90;;
74867;SDS011;63419;42.262;12.210;2022-11-21T01:31:54;6.68;;;2.88;;
74867;SDS011;63419;42.262;12.210;2022-11-21T01:34:24;3.97;;;1.10;;
74867;SDS011;63419;42.262;12.210;2022-11-21T01:36:55;3.97;;;1.20;;
74867;SDS011;63419;42.262;12.210;2022-11-21T01:39:22;6.28;;;3.42;;
74867;SDS011;63419;42.262;12.210;2022-11-21T01:41:51;5.22;;;1.80;;
74867;SDS011;63419;42.262;12.210;2022-11-21T01:44:24;4.93;;;2.42;;
74867;SDS011;63419;42.262;12.210;2022-11-21T01:47:19;2.90;;;0.80;;
74867;SDS011;63419;42.262;12.210;2022-11-21T01:49:51;5.85;;;1.73;;
74867;SDS011;63419;42.262;12.210;2022-11-21T01:52:22;4.20;;;1.27;;
74867;SDS011;63419;42.262;12.210;2022-11-21T01:55:03;2.47;;;0.75;;
74867;SDS011;63419;42.262;12.210;2022-11-21T01:57:45;3.45;;;0.50;;
74867;SDS011;63419;42.262;12.210;2022-11-21T02:03:00;2.47;;;0.57;;
74867;SDS011;63419;42.262;12.210;2022-11-21T02:05:37;2.70;;;0.52;;
74867;SDS011;63419;42.262;12.210;2022-11-21T02:08:12;2.33;;;0.50;;
74867;SDS011;63419;42.262;12.210;2022-11-21T02:11:08;2.65;;;0.73;;
74867;SDS011;63419;42.262;12.210;2022-11-21T02:14:00;3.97;;;0.60;;
74867;SDS011;63419;42.262;12.210;2022-11-21T02:16:34;2.67;;;0.55;;
74867;SDS011;63419;42.262;12.210;2022-11-21T02:19:03;3.50;;;0.90;;
74867;SDS011;63419;42.262;12.210;2022-11-21T02:25:45;1.92;;;0.40;;
74867;SDS011;63419;42.262;12.210;2022-11-21T02:30:55;1.02;;;0.20;;
74867;SDS011;63419;42.262;12.210;2022-11-21T02:33:24;1.23;;;0.32;;
74867;SDS011;63419;42.262;12.210;2022-11-21T02:35:57;2.03;;;0.40;;
74867;SDS011;63419;42.262;12.210;2022-11-21T02:39:22;4.47;;;0.93;;
74867;SDS011;63419;42.262;12.210;2022-11-21T02:42:05;3.28;;;0.90;;
74867;SDS011;63419;42.262;12.210;2022-11-21T02:44:59;2.05;;;0.40;;
74867;SDS011;63419;42.262;12.210;2022-11-21T02:47:54;2.53;;;0.40;;
74867;SDS011;63419;42.262;12.210;2022-11-21T02:50:39;3.20;;;0.57;;
74867;SDS011;63419;42.262;12.210;2022-11-21T02:53:12;4.53;;;1.10;;
74867;SDS011;63419;42.262;12.210;2022-11-21T02:55:44;3.28;;;0.93;;
74867;SDS011;63419;42.262;12.210;2022-11-21T02:58:13;38.38;;;16.25;;
74867;SDS011;63419;42.262;12.210;2022-11-21T03:00:46;6.60;;;2.55;;
74867;SDS011;63419;42.262;12.210;2022-11-21T03:03:16;3.88;;;0.70;;
74867;SDS011;63419;42.262;12.210;2022-11-21T03:05:48;5.47;;;1.75;;
74867;SDS011;63419;42.262;12.210;2022-11-21T03:08:15;5.47;;;1.40;;
74867;SDS011;63419;42.262;12.210;2022-11-21T03:10:49;1.70;;;0.30;;
74867;SDS011;63419;42.262;12.210;2022-11-21T03:13:21;2.15;;;0.32;;
74867;SDS011;63419;42.262;12.210;2022-11-21T03:16:02;1.58;;;0.40;;
74867;SDS011;63419;42.262;12.210;2022-11-21T03:18:31;4.10;;;0.82;;
74867;SDS011;63419;42.262;12.210;2022-11-21T03:21:01;2.78;;;0.60;;
74867;SDS011;63419;42.262;12.210;2022-11-21T03:23:47;2.47;;;0.50;;
74867;SDS011;63419;42.262;12.210;2022-11-21T03:26:27;1.60;;;0.40;;
74867;SDS011;63419;42.262;12.210;2022-11-21T03:29:28;2.28;;;0.30;;
74867;SDS011;63419;42.262;12.210;2022-11-21T03:31:56;3.13;;;0.52;;
74867;SDS011;63419;42.262;12.210;2022-11-21T03:34:31;2.40;;;0.50;;
74867;SDS011;63419;42.262;12.210;2022-11-21T03:37:09;1.02;;;0.20;;
74867;SDS011;63419;42.262;12.210;2022-11-21T03:39:42;1.05;;;0.20;;
74867;SDS011;63419;42.262;12.210;2022-11-21T03:42:19;3.00;;;0.30;;
74867;SDS011;63419;42.262;12.210;2022-11-21T03:44:46;1.10;;;0.20;;
74867;SDS011;63419;42.262;12.210;2022-11-21T03:47:16;3.63;;;0.50;;
74867;SDS011;63419;42.262;12.210;2022-11-21T03:49:43;3.72;;;1.02;;
74867;SDS011;63419;42.262;12.210;2022-11-21T03:52:11;1.63;;;0.35;;
74867;SDS011;63419;42.262;12.210;2022-11-21T03:57:09;0.70;;;0.15;;
74867;SDS011;63419;42.262;12.210;2022-11-21T03:59:40;1.63;;;0.30;;
74867;SDS011;63419;42.262;12.210;2022-11-21T04:02:11;1.92;;;0.30;;
74867;SDS011;63419;42.262;12.210;2022-11-21T04:04:42;1.42;;;0.30;;
74867;SDS011;63419;42.262;12.210;2022-11-21T04:07:12;4.35;;;0.25;;
74867;SDS011;63419;42.262;12.210;2022-11-21T04:09:46;1.10;;;0.20;;
74867;SDS011;63419;42.262;12.210;2022-11-21T04:12:17;1.95;;;0.28;;
74867;SDS011;63419;42.262;12.210;2022-11-21T04:14:50;1.55;;;0.40;;
74867;SDS011;63419;42.262;12.210;2022-11-21T04:17:39;0.80;;;0.20;;
74867;SDS011;63419;42.262;12.210;2022-11-21T04:20:09;1.40;;;0.30;;
74867;SDS011;63419;42.262;12.210;2022-11-21T04:22:41;4.95;;;0.52;;
74867;SDS011;63419;42.262;12.210;2022-11-21T04:25:12;3.88;;;0.90;;
74867;SDS011;63419;42.262;12.210;2022-11-21T04:27:45;4.55;;;1.63;;
74867;SDS011;63419;42.262;12.210;2022-11-21T04:30:16;2.10;;;0.30;;
74867;SDS011;63419;42.262;12.210;2022-11-21T04:32:44;1.10;;;0.30;;
74867;SDS011;63419;42.262;12.210;2022-11-21T04:35:23;1.02;;;0.30;;
74867;SDS011;63419;42.262;12.210;2022-11-21T04:37:55;1.10;;;0.20;;
74867;SDS011;63419;42.262;12.210;2022-11-21T04:40:23;1.63;;;0.28;;
74867;SDS011;63419;42.262;12.210;2022-11-21T04:42:51;0.73;;;0.10;;
74867;SDS011;63419;42.262;12.210;2022-11-21T04:45:29;0.85;;;0.10;;
74867;SDS011;63419;42.262;12.210;2022-11-21T04:48:00;0.93;;;0.20;;
74867;SDS011;63419;42.262;12.210;2022-11-21T04:50:32;2.60;;;0.38;;
74867;SDS011;63419;42.262;12.210;2022-11-21T04:53:04;1.33;;;0.20;;
74867;SDS011;63419;42.262;12.210;2022-11-21T04:55:32;1.40;;;0.20;;
74867;SDS011;63419;42.262;12.210;2022-11-21T04:58:03;1.92;;;0.20;;
74867;SDS011;63419;42.262;12.210;2022-11-21T05:00:35;1.70;;;0.40;;
74867;SDS011;63419;42.262;12.210;2022-11-21T05:03:09;0.88;;;0.20;;
74867;SDS011;63419;42.262;12.210;2022-11-21T05:05:54;3.58;;;0.40;;
74867;SDS011;63419;42.262;12.210;2022-11-21T05:08:23;1.85;;;0.35;;
74867;SDS011;63419;42.262;12.210;2022-11-21T05:13:39;0.75;;;0.10;;
74867;SDS011;63419;42.262;12.210;2022-11-21T05:16:06;4.30;;;0.40;;
74867;SDS011;63419;42.262;12.210;2022-11-21T05:18:41;0.77;;;0.17;;
74867;SDS011;63419;42.262;12.210;2022-11-21T05:21:19;2.08;;;0.30;;
74867;SDS011;63419;42.262;12.210;2022-11-21T05:23:49;2.28;;;0.40;;
74867;SDS011;63419;42.262;12.210;2022-11-21T05:26:23;3.28;;;0.40;;
74867;SDS011;63419;42.262;12.210;2022-11-21T05:28:52;1.75;;;0.35;;
74867;SDS011;63419;42.262;12.210;2022-11-21T05:31:31;1.55;;;0.25;;
74867;SDS011;63419;42.262;12.210;2022-11-21T05:34:02;1.67;;;0.40;;
74867;SDS011;63419;42.262;12.210;2022-11-21T05:36:41;0.68;;;0.20;;
74867;SDS011;63419;42.262;12.210;2022-11-21T05:39:11;1.65;;;0.30;;
74867;SDS011;63419;42.262;12.210;2022-11-21T05:41:43;1.98;;;0.30;;
74867;SDS011;63419;42.262;12.210;2022-11-21T05:44:28;2.33;;;0.45;;
74867;SDS011;63419;42.262;12.210;2022-11-21T05:47:04;2.20;;;0.40;;
74867;SDS011;63419;42.262;12.210;2022-11-21T05:49:32;0.82;;;0.20;;
74867;SDS011;63419;42.262;12.210;2022-11-21T05:52:00;1.38;;;0.20;;
74867;SDS011;63419;42.262;12.210;2022-11-21T05:54:32;4.70;;;0.40;;
74867;SDS011;63419;42.262;12.210;2022-11-21T05:57:05;1.17;;;0.20;;
74867;SDS011;63419;42.262;12.210;2022-11-21T05:59:37;1.27;;;0.22;;
74867;SDS011;63419;42.262;12.210;2022-11-21T06:02:08;3.45;;;0.30;;
74867;SDS011;63419;42.262;12.210;2022-11-21T06:04:57;2.47;;;0.50;;
74867;SDS011;63419;42.262;12.210;2022-11-21T06:07:25;2.35;;;0.50;;
74867;SDS011;63419;42.262;12.210;2022-11-21T06:09:54;2.00;;;0.50;;
74867;SDS011;63419;42.262;12.210;2022-11-21T06:12:31;1.10;;;0.20;;
74867;SDS011;63419;42.262;12.210;2022-11-21T06:15:00;2.42;;;0.20;;
74867;SDS011;63419;42.262;12.210;2022-11-21T06:17:32;1.50;;;0.20;;
74867;SDS011;63419;42.262;12.210;2022-11-21T06:20:02;1.30;;;0.17;;
74867;SDS011;63419;42.262;12.210;2022-11-21T06:22:31;1.48;;;0.30;;
74867;SDS011;63419;42.262;12.210;2022-11-21T06:24:59;3.75;;;0.38;;
74867;SDS011;63419;42.262;12.210;2022-11-21T06:27:29;1.95;;;0.30;;
74867;SDS011;63419;42.262;12.210;2022-11-21T06:30:04;2.55;;;0.40;;
74867;SDS011;63419;42.262;12.210;2022-11-21T06:32:47;1.92;;;0.45;;
74867;SDS011;63419;42.262;12.210;2022-11-21T06:35:14;2.22;;;0.40;;
74867;SDS011;63419;42.262;12.210;2022-11-21T06:37:43;2.83;;;0.43;;
74867;SDS011;63419;42.262;12.210;2022-11-21T06:40:19;3.38;;;0.60;;
74867;SDS011;63419;42.262;12.210;2022-11-21T06:42:50;3.15;;;0.70;;
74867;SDS011;63419;42.262;12.210;2022-11-21T06:45:18;2.42;;;0.50;;
74867;SDS011;63419;42.262;12.210;2022-11-21T06:47:47;4.22;;;0.90;;
74867;SDS011;63419;42.262;12.210;2022-11-21T06:50:18;3.95;;;0.80;;
74867;SDS011;63419;42.262;12.210;2022-11-21T06:52:48;4.55;;;1.00;;
74867;SDS011;63419;42.262;12.210;2022-11-21T06:55:20;3.20;;;0.80;;
74867;SDS011;63419;42.262;12.210;2022-11-21T06:58:00;3.72;;;1.02;;
74867;SDS011;63419;42.262;12.210;2022-11-21T07:00:30;4.28;;;1.00;;
74867;SDS011;63419;42.262;12.210;2022-11-21T07:03:02;4.82;;;1.02;;
74867;SDS011;63419;42.262;12.210;2022-11-21T07:05:33;3.80;;;1.02;;
74867;SDS011;63419;42.262;12.210;2022-11-21T07:08:06;4.55;;;1.25;;
74867;SDS011;63419;42.262;12.210;2022-11-21T07:10:46;4.47;;;1.02;;
74867;SDS011;63419;42.262;12.210;2022-11-21T07:13:37;4.88;;;1.10;;
74867;SDS011;63419;42.262;12.210;2022-11-21T07:16:08;4.80;;;0.82;;
74867;SDS011;63419;42.262;12.210;2022-11-21T07:18:51;4.00;;;0.82;;
74867;SDS011;63419;42.262;12.210;2022-11-21T07:21:21;4.80;;;0.75;;
74867;SDS011;63419;42.262;12.210;2022-11-21T07:23:50;3.25;;;0.75;;
74867;SDS011;63419;42.262;12.210;2022-11-21T07:26:21;5.80;;;0.80;;
74867;SDS011;63419;42.262;12.210;2022-11-21T07:28:51;4.07;;;1.02;;
74867;SDS011;63419;42.262;12.210;2022-11-21T07:31:28;3.20;;;0.80;;
74867;SDS011;63419;42.262;12.210;2022-11-21T07:34:05;9.13;;;1.73;;
74867;SDS011;63419;42.262;12.210;2022-11-21T07:36:37;10.85;;;2.60;;
74867;SDS011;63419;42.262;12.210;2022-11-21T07:39:06;12.45;;;2.47;;
74867;SDS011;63419;42.262;12.210;2022-11-21T07:41:38;10.13;;;2.42;;
74867;SDS011;63419;42.262;12.210;2022-11-21T07:44:11;8.70;;;1.92;;
74867;SDS011;63419;42.262;12.210;2022-11-21T07:46:44;6.82;;;1.13;;
74867;SDS011;63419;42.262;12.210;2022-11-21T07:51:42;5.15;;;1.00;;
74867;SDS011;63419;42.262;12.210;2022-11-21T07:54:13;3.90;;;0.85;;
74867;SDS011;63419;42.262;12.210;2022-11-21T07:56:43;4.50;;;1.48;;
74867;SDS011;63419;42.262;12.210;2022-11-21T07:59:11;5.68;;;1.95;;
74867;SDS011;63419;42.262;12.210;2022-11-21T08:01:54;8.07;;;2.30;;
74867;SDS011;63419;42.262;12.210;2022-11-21T08:04:24;6.60;;;1.75;;
74867;SDS011;63419;42.262;12.210;2022-11-21T08:06:52;5.00;;;1.50;;
74867;SDS011;63419;42.262;12.210;2022-11-21T08:09:20;6.70;;;1.23;;
74867;SDS011;63419;42.262;12.210;2022-11-21T08:11:49;5.10;;;1.65;;
74867;SDS011;63419;42.262;12.210;2022-11-21T08:14:16;5.45;;;1.70;;
74867;SDS011;63419;42.262;12.210;2022-11-21T08:16:43;9.18;;;2.10;;
74867;SDS011;63419;42.262;12.210;2022-11-21T08:19:10;5.55;;;2.15;;
74867;SDS011;63419;42.262;12.210;2022-11-21T08:21:42;4.38;;;1.42;;
74867;SDS011;63419;42.262;12.210;2022-11-21T08:24:12;4.30;;;1.17;;
74867;SDS011;63419;42.262;12.210;2022-11-21T08:26:47;4.13;;;1.10;;
74867;SDS011;63419;42.262;12.210;2022-11-21T08:31:48;5.65;;;1.13;;
74867;SDS011;63419;42.262;12.210;2022-11-21T08:34:22;3.80;;;0.90;;
74867;SDS011;63419;42.262;12.210;2022-11-21T08:36:50;5.97;;;0.93;;
74867;SDS011;63419;42.262;12.210;2022-11-21T08:39:19;7.38;;;0.90;;
74867;SDS011;63419;42.262;12.210;2022-11-21T08:42:03;3.90;;;0.90;;
74867;SDS011;63419;42.262;12.210;2022-11-21T08:44:36;3.03;;;0.80;;
74867;SDS011;63419;42.262;12.210;2022-11-21T08:47:06;4.25;;;1.00;;
74867;SDS011;63419;42.262;12.210;2022-11-21T08:49:35;3.92;;;0.70;;
74867;SDS011;63419;42.262;12.210;2022-11-21T08:52:05;4.10;;;0.85;;
74867;SDS011;63419;42.262;12.210;2022-11-21T08:54:38;3.33;;;0.60;;
74867;SDS011;63419;42.262;12.210;2022-11-21T08:57:11;3.20;;;0.57;;
74867;SDS011;63419;42.262;12.210;2022-11-21T08:59:40;2.85;;;0.38;;
74867;SDS011;63419;42.262;12.210;2022-11-21T09:02:09;2.63;;;0.50;;
74867;SDS011;63419;42.262;12.210;2022-11-21T09:04:39;2.20;;;0.40;;
74867;SDS011;63419;42.262;12.210;2022-11-21T09:07:11;2.42;;;0.30;;
74867;SDS011;63419;42.262;12.210;2022-11-21T09:09:47;6.43;;;0.45;;
74867;SDS011;63419;42.262;12.210;2022-11-21T09:12:18;2.08;;;0.50;;
74867;SDS011;63419;42.262;12.210;2022-11-21T09:14:51;2.67;;;0.40;;
74867;SDS011;63419;42.262;12.210;2022-11-21T09:17:37;2.13;;;0.52;;
74867;SDS011;63419;42.262;12.210;2022-11-21T09:20:32;3.38;;;0.60;;
74867;SDS011;63419;42.262;12.210;2022-11-21T09:23:06;3.45;;;1.10;;
74867;SDS011;63419;42.262;12.210;2022-11-21T09:25:40;3.55;;;0.50;;
74867;SDS011;63419;42.262;12.210;2022-11-21T09:28:09;3.15;;;0.73;;
74867;SDS011;63419;42.262;12.210;2022-11-21T09:30:40;3.45;;;0.88;;
74867;SDS011;63419;42.262;12.210;2022-11-21T09:33:13;2.05;;;0.50;;
74867;SDS011;63419;42.262;12.210;2022-11-21T09:35:43;3.22;;;0.90;;
74867;SDS011;63419;42.262;12.210;2022-11-21T09:38:11;3.38;;;0.60;;
74867;SDS011;63419;42.262;12.210;2022-11-21T09:40:50;3.00;;;0.60;;
74867;SDS011;63419;42.262;12.210;2022-11-21T09:47:37;3.47;;;0.75;;
74867;SDS011;63419;42.262;12.210;2022-11-21T09:50:34;3.53;;;0.50;;
74867;SDS011;63419;42.262;12.210;2022-11-21T09:56:30;3.40;;;0.40;;
74867;SDS011;63419;42.262;12.210;2022-11-21T10:02:01;4.85;;;1.58;;
74867;SDS011;63419;42.262;12.210;2022-11-21T10:04:44;3.53;;;0.93;;
74867;SDS011;63419;42.262;12.210;2022-11-21T10:07:24;4.35;;;1.15;;
74867;SDS011;63419;42.262;12.210;2022-11-21T10:22:51;11.73;;;3.08;;
74867;SDS011;63419;42.262;12.210;2022-11-21T10:29:35;6.43;;;2.67;;
74867;SDS011;63419;42.262;12.210;2022-11-21T10:32:35;4.65;;;1.48;;
74867;SDS011;63419;42.262;12.210;2022-11-21T10:35:16;4.88;;;1.13;;
74867;SDS011;63419;42.262;12.210;2022-11-21T10:37:51;3.70;;;1.10;;
74867;SDS011;63419;42.262;12.210;2022-11-21T10:40:43;10.75;;;3.67;;
74867;SDS011;63419;42.262;12.210;2022-11-21T10:43:41;5.80;;;1.20;;
74867;SDS011;63419;42.262;12.210;2022-11-21T10:46:57;3.60;;;0.80;;
74867;SDS011;63419;42.262;12.210;2022-11-21T10:49:36;10.85;;;3.80;;
74867;SDS011;63419;42.262;12.210;2022-11-21T10:52:15;5.43;;;1.75;;
74867;SDS011;63419;42.262;12.210;2022-11-21T10:57:38;4.78;;;1.30;;
74867;SDS011;63419;42.262;12.210;2022-11-21T11:00:22;7.40;;;1.02;;
74867;SDS011;63419;42.262;12.210;2022-11-21T11:02:59;5.70;;;1.10;;
74867;SDS011;63419;42.262;12.210;2022-11-21T11:05:36;3.33;;;0.70;;
74867;SDS011;63419;42.262;12.210;2022-11-21T11:08:13;3.50;;;0.90;;
74867;SDS011;63419;42.262;12.210;2022-11-21T11:10:45;4.82;;;1.00;;
74867;SDS011;63419;42.262;12.210;2022-11-21T11:13:59;5.90;;;1.95;;
74867;SDS011;63419;42.262;12.210;2022-11-21T11:16:42;4.38;;;1.33;;
74867;SDS011;63419;42.262;12.210;2022-11-21T11:19:19;4.15;;;1.38;;
74867;SDS011;63419;42.262;12.210;2022-11-21T11:22:25;4.93;;;1.30;;
74867;SDS011;63419;42.262;12.210;2022-11-21T11:25:02;4.15;;;1.20;;
74867;SDS011;63419;42.262;12.210;2022-11-21T11:27:57;3.38;;;0.95;;
74867;SDS011;63419;42.262;12.210;2022-11-21T11:30:38;4.28;;;1.50;;
74867;SDS011;63419;42.262;12.210;2022-11-21T11:36:35;5.20;;;0.93;;
74867;SDS011;63419;42.262;12.210;2022-11-21T11:39:16;2.78;;;0.63;;
74867;SDS011;63419;42.262;12.210;2022-11-21T11:44:49;1.55;;;0.35;;
74867;SDS011;63419;42.262;12.210;2022-11-21T11:48:02;3.55;;;0.90;;
74867;SDS011;63419;42.262;12.210;2022-11-21T11:53:32;2.20;;;0.70;;
74867;SDS011;63419;42.262;12.210;2022-11-21T11:56:33;5.72;;;0.77;;
74867;SDS011;63419;42.262;12.210;2022-11-21T12:02:41;2.63;;;0.70;;
74867;SDS011;63419;42.262;12.210;2022-11-21T12:05:53;3.20;;;0.75;;
74867;SDS011;63419;42.262;12.210;2022-11-21T12:08:50;5.28;;;0.93;;
74867;SDS011;63419;42.262;12.210;2022-11-21T12:18:26;4.55;;;0.73;;
74867;SDS011;63419;42.262;12.210;2022-11-21T12:21:40;3.08;;;0.90;;
74867;SDS011;63419;42.262;12.210;2022-11-21T12:24:10;3.97;;;1.00;;
74867;SDS011;63419;42.262;12.210;2022-11-21T12:32:50;3.22;;;0.60;;
74867;SDS011;63419;42.262;12.210;2022-11-21T12:45:49;4.45;;;0.80;;
74867;SDS011;63419;42.262;12.210;2022-11-21T12:57:18;3.50;;;0.80;;
74867;SDS011;63419;42.262;12.210;2022-11-21T13:03:05;2.97;;;0.77;;
74867;SDS011;63419;42.262;12.210;2022-11-21T13:05:50;3.05;;;0.77;;
74867;SDS011;63419;42.262;12.210;2022-11-21T13:08:23;5.68;;;0.95;;
74867;SDS011;63419;42.262;12.210;2022-11-21T13:11:08;3.25;;;0.60;;
74867;SDS011;63419;42.262;12.210;2022-11-21T13:17:28;2.75;;;0.63;;
74867;SDS011;63419;42.262;12.210;2022-11-21T13:31:58;1.77;;;0.47;;
74867;SDS011;63419;42.262;12.210;2022-11-21T13:38:02;3.00;;;0.80;;
74867;SDS011;63419;42.262;12.210;2022-11-21T13:40:51;4.93;;;0.70;;
74867;SDS011;63419;42.262;12.210;2022-11-21T13:43:43;2.72;;;0.70;;
74867;SDS011;63419;42.262;12.210;2022-11-21T13:46:35;3.88;;;0.80;;
74867;SDS011;63419;42.262;12.210;2022-11-21T13:52:43;4.25;;;0.77;;
74867;SDS011;63419;42.262;12.210;2022-11-21T14:08:24;5.93;;;0.90;;
74867;SDS011;63419;42.262;12.210;2022-11-21T14:11:01;3.38;;;0.45;;
74867;SDS011;63419;42.262;12.210;2022-11-21T14:14:23;5.00;;;0.80;;
74867;SDS011;63419;42.262;12.210;2022-11-21T14:20:28;6.07;;;1.00;;
74867;SDS011;63419;42.262;12.210;2022-11-21T14:23:28;3.42;;;0.70;;
74867;SDS011;63419;42.262;12.210;2022-11-21T14:26:15;8.43;;;1.10;;
74867;SDS011;63419;42.262;12.210;2022-11-21T14:28:50;7.28;;;1.30;;
74867;SDS011;63419;42.262;12.210;2022-11-21T14:31:59;8.07;;;3.13;;
74867;SDS011;63419;42.262;12.210;2022-11-21T14:34:38;8.80;;;1.50;;
74867;SDS011;63419;42.262;12.210;2022-11-21T14:37:09;6.43;;;0.93;;
74867;SDS011;63419;42.262;12.210;2022-11-21T14:39:56;8.02;;;0.82;;
74867;SDS011;63419;42.262;12.210;2022-11-21T14:42:33;5.65;;;0.98;;
74867;SDS011;63419;42.262;12.210;2022-11-21T14:45:27;8.80;;;1.02;;
74867;SDS011;63419;42.262;12.210;2022-11-21T14:48:03;6.63;;;0.90;;
74867;SDS011;63419;42.262;12.210;2022-11-21T14:50:48;5.28;;;1.13;;
74867;SDS011;63419;42.262;12.210;2022-11-21T14:53:26;7.53;;;1.35;;
74867;SDS011;63419;42.262;12.210;2022-11-21T14:56:02;11.73;;;1.10;;
74867;SDS011;63419;42.262;12.210;2022-11-21T14:58:39;9.57;;;1.65;;
74867;SDS011;63419;42.262;12.210;2022-11-21T15:01:18;9.32;;;1.80;;
74867;SDS011;63419;42.262;12.210;2022-11-21T15:03:56;6.72;;;1.38;;
74867;SDS011;63419;42.262;12.210;2022-11-21T15:06:40;4.65;;;1.17;;
74867;SDS011;63419;42.262;12.210;2022-11-21T15:09:13;8.00;;;1.55;;
74867;SDS011;63419;42.262;12.210;2022-11-21T15:12:07;10.20;;;1.70;;
74867;SDS011;63419;42.262;12.210;2022-11-21T15:17:20;13.90;;;4.35;;
74867;SDS011;63419;42.262;12.210;2022-11-21T15:20:04;12.60;;;3.28;;
74867;SDS011;63419;42.262;12.210;2022-11-21T15:22:54;6.93;;;2.10;;
74867;SDS011;63419;42.262;12.210;2022-11-21T15:25:28;6.32;;;1.27;;
74867;SDS011;63419;42.262;12.210;2022-11-21T15:28:15;4.30;;;1.23;;
74867;SDS011;63419;42.262;12.210;2022-11-21T15:34:25;10.07;;;1.30;;
74867;SDS011;63419;42.262;12.210;2022-11-21T15:37:11;7.75;;;1.33;;
74867;SDS011;63419;42.262;12.210;2022-11-21T15:39:43;8.63;;;1.38;;
74867;SDS011;63419;42.262;12.210;2022-11-21T15:45:25;7.65;;;2.05;;
74867;SDS011;63419;42.262;12.210;2022-11-21T15:47:58;5.93;;;1.50;;
74867;SDS011;63419;42.262;12.210;2022-11-21T15:50:26;7.15;;;1.73;;
74867;SDS011;63419;42.262;12.210;2022-11-21T15:52:55;9.63;;;1.95;;
74867;SDS011;63419;42.262;12.210;2022-11-21T15:55:32;7.22;;;1.90;;
74867;SDS011;63419;42.262;12.210;2022-11-21T15:58:12;11.00;;;1.77;;
74867;SDS011;63419;42.262;12.210;2022-11-21T16:00:44;8.95;;;2.22;;
74867;SDS011;63419;42.262;12.210;2022-11-21T16:03:18;9.30;;;2.28;;
74867;SDS011;63419;42.262;12.210;2022-11-21T16:05:49;8.85;;;2.35;;
74867;SDS011;63419;42.262;12.210;2022-11-21T16:08:32;8.30;;;1.70;;
74867;SDS011;63419;42.262;12.210;2022-11-21T16:11:04;9.52;;;1.98;;
74867;SDS011;63419;42.262;12.210;2022-11-21T16:14:12;10.07;;;1.73;;
74867;SDS011;63419;42.262;12.210;2022-11-21T16:16:48;9.95;;;1.75;;
74867;SDS011;63419;42.262;12.210;2022-11-21T16:19:19;10.73;;;2.42;;
74867;SDS011;63419;42.262;12.210;2022-11-21T16:21:46;9.35;;;1.90;;
74867;SDS011;63419;42.262;12.210;2022-11-21T16:24:19;9.20;;;2.47;;
74867;SDS011;63419;42.262;12.210;2022-11-21T16:26:51;8.40;;;2.22;;
74867;SDS011;63419;42.262;12.210;2022-11-21T16:29:21;9.20;;;1.90;;
74867;SDS011;63419;42.262;12.210;2022-11-21T16:31:52;7.85;;;2.28;;
74867;SDS011;63419;42.262;12.210;2022-11-21T16:34:21;9.93;;;2.10;;
74867;SDS011;63419;42.262;12.210;2022-11-21T16:36:59;8.65;;;2.88;;
74867;SDS011;63419;42.262;12.210;2022-11-21T16:39:33;8.20;;;2.30;;
74867;SDS011;63419;42.262;12.210;2022-11-21T16:42:01;9.75;;;2.28;;
74867;SDS011;63419;42.262;12.210;2022-11-21T16:44:39;9.65;;;2.38;;
74867;SDS011;63419;42.262;12.210;2022-11-21T16:47:07;8.18;;;3.00;;
74867;SDS011;63419;42.262;12.210;2022-11-21T16:49:37;11.95;;;2.75;;
74867;SDS011;63419;42.262;12.210;2022-11-21T16:52:14;11.07;;;3.30;;
74867;SDS011;63419;42.262;12.210;2022-11-21T16:54:44;12.45;;;3.05;;
74867;SDS011;63419;42.262;12.210;2022-11-21T16:57:19;10.63;;;3.00;;
74867;SDS011;63419;42.262;12.210;2022-11-21T16:59:48;12.98;;;4.43;;
74867;SDS011;63419;42.262;12.210;2022-11-21T17:02:36;9.68;;;3.47;;
74867;SDS011;63419;42.262;12.210;2022-11-21T17:05:05;17.50;;;4.68;;
74867;SDS011;63419;42.262;12.210;2022-11-21T17:07:42;9.32;;;3.75;;
74867;SDS011;63419;42.262;12.210;2022-11-21T17:10:21;8.57;;;2.75;;
74867;SDS011;63419;42.262;12.210;2022-11-21T17:12:59;9.52;;;2.53;;
74867;SDS011;63419;42.262;12.210;2022-11-21T17:15:31;14.68;;;3.78;;
74867;SDS011;63419;42.262;12.210;2022-11-21T17:18:06;9.43;;;3.50;;
74867;SDS011;63419;42.262;12.210;2022-11-21T17:20:40;9.65;;;2.95;;
74867;SDS011;63419;42.262;12.210;2022-11-21T17:23:14;10.80;;;2.55;;
74867;SDS011;63419;42.262;12.210;2022-11-21T17:25:44;9.80;;;3.67;;
74867;SDS011;63419;42.262;12.210;2022-11-21T17:28:12;12.15;;;5.40;;
74867;SDS011;63419;42.262;12.210;2022-11-21T17:30:46;17.10;;;5.90;;
74867;SDS011;63419;42.262;12.210;2022-11-21T17:33:20;11.68;;;6.25;;
74867;SDS011;63419;42.262;12.210;2022-11-21T17:35:51;12.55;;;6.13;;
74867;SDS011;63419;42.262;12.210;2022-11-21T17:41:03;11.88;;;5.43;;
74867;SDS011;63419;42.262;12.210;2022-11-21T17:43:44;18.23;;;6.07;;
74867;SDS011;63419;42.262;12.210;2022-11-21T17:46:18;13.18;;;7.22;;
74867;SDS011;63419;42.262;12.210;2022-11-21T17:49:04;12.57;;;5.28;;
74867;SDS011;63419;42.262;12.210;2022-11-21T17:51:36;12.77;;;4.75;;
74867;SDS011;63419;42.262;12.210;2022-11-21T17:54:08;11.95;;;3.13;;
74867;SDS011;63419;42.262;12.210;2022-11-21T17:56:38;10.88;;;3.72;;